sensor_id;sensor_type;location;lat;lon;timestamp;pressure;altitude;pressure_sealevel;temperature;humidity
48089;BME280;33867;50.314;7.802;2022-08-03T10:58:16;100198.66;;;41.75;nan
48089;BME280;33867;50.314;7.802;2022-08-03T12:25:42;100135.03;;;41.81;nan
48089;BME280;33867;50.314;7.802;2022-08-03T12:29:37;100139.53;;;42.70;nan
48089;BME280;33867;50.314;7.802;2022-08-03T12:37:36;100130.75;;;43.57;nan
48089;BME280;33867;50.314;7.802;2022-08-03T12:41:58;100127.84;;;43.54;nan
48089;BME280;33867;50.314;7.802;2022-08-03T12:45:30;62132.72;;;-144.99;100.00
48089;BME280;33867;50.314;7.802;2022-08-03T12:52:56;62132.72;;;-144.99;100.00
48089;BME280;33867;50.314;7.802;2022-08-03T13:01:43;62132.72;;;-144.99;100.00
48089;BME280;33867;50.314;7.802;2022-08-03T13:09:57;62132.72;;;-144.99;100.00
48089;BME280;33867;50.314;7.802;2022-08-03T13:22:48;62132.72;;;-144.99;100.00
48089;BME280;33867;50.314;7.802;2022-08-03T13:31:30;62132.72;;;-144.99;100.00
48089;BME280;33867;50.314;7.802;2022-08-03T13:34:54;100127.84;;;43.54;nan
48089;BME280;33867;50.314;7.802;2022-08-03T13:38:18;100094.69;;;38.15;nan
48089;BME280;33867;50.314;7.802;2022-08-03T13:41:38;100092.81;;;39.84;nan
48089;BME280;33867;50.314;7.802;2022-08-03T13:45:00;100090.06;;;40.87;nan
48089;BME280;33867;50.314;7.802;2022-08-03T13:48:29;100094.44;;;41.49;nan
48089;BME280;33867;50.314;7.802;2022-08-03T13:52:18;100088.69;;;42.14;nan
48089;BME280;33867;50.314;7.802;2022-08-03T13:55:45;100079.31;;;42.41;nan
48089;BME280;33867;50.314;7.802;2022-08-03T13:59:10;100066.75;;;42.54;nan
48089;BME280;33867;50.314;7.802;2022-08-03T14:02:42;100073.38;;;39.70;nan
48089;BME280;33867;50.314;7.802;2022-08-03T14:11:06;100058.19;;;37.72;nan
48089;BME280;33867;50.314;7.802;2022-08-03T14:19:36;100056.03;;;37.34;nan
48089;BME280;33867;50.314;7.802;2022-08-03T14:22:56;100057.13;;;38.75;nan
48089;BME280;33867;50.314;7.802;2022-08-03T14:26:15;100046.81;;;38.79;nan
48089;BME280;33867;50.314;7.802;2022-08-03T14:29:36;100046.88;;;39.84;nan
48089;BME280;33867;50.314;7.802;2022-08-03T14:32:56;100044.25;;;38.10;nan
48089;BME280;33867;50.314;7.802;2022-08-03T14:36:18;100040.38;;;39.50;nan
48089;BME280;33867;50.314;7.802;2022-08-03T14:39:37;100041.47;;;40.12;nan
48089;BME280;33867;50.314;7.802;2022-08-03T14:42:57;100038.84;;;40.52;nan
48089;BME280;33867;50.314;7.802;2022-08-03T14:46:17;100032.50;;;40.55;nan
48089;BME280;33867;50.314;7.802;2022-08-03T14:49:36;100039.91;;;40.84;nan
48089;BME280;33867;50.314;7.802;2022-08-03T14:52:56;100023.78;;;40.48;nan
48089;BME280;33867;50.314;7.802;2022-08-03T14:56:15;100029.16;;;40.41;nan
48089;BME280;33867;50.314;7.802;2022-08-03T14:59:35;100020.84;;;40.44;nan
48089;BME280;33867;50.314;7.802;2022-08-03T15:02:54;100021.56;;;40.66;nan
48089;BME280;33867;50.314;7.802;2022-08-03T15:06:14;100012.50;;;40.60;nan
48089;BME280;33867;50.314;7.802;2022-08-03T15:09:33;100011.09;;;40.66;nan
48089;BME280;33867;50.314;7.802;2022-08-03T15:12:53;100007.69;;;39.91;nan
48089;BME280;33867;50.314;7.802;2022-08-03T15:16:13;100011.03;;;39.51;nan
48089;BME280;33867;50.314;7.802;2022-08-03T15:19:32;100008.94;;;38.77;nan
48089;BME280;33867;50.314;7.802;2022-08-03T15:22:51;99998.19;;;39.00;nan
48089;BME280;33867;50.314;7.802;2022-08-03T15:26:11;100001.59;;;39.05;nan
48089;BME280;33867;50.314;7.802;2022-08-03T15:29:30;99992.47;;;39.29;nan
48089;BME280;33867;50.314;7.802;2022-08-03T15:32:49;99988.78;;;39.37;nan
48089;BME280;33867;50.314;7.802;2022-08-03T15:36:08;99992.25;;;37.61;nan
48089;BME280;33867;50.314;7.802;2022-08-03T15:39:28;99989.59;;;36.95;nan
48089;BME280;33867;50.314;7.802;2022-08-03T15:42:47;99982.66;;;36.84;nan
48089;BME280;33867;50.314;7.802;2022-08-03T15:46:06;99986.16;;;36.41;nan
48089;BME280;33867;50.314;7.802;2022-08-03T15:49:25;99984.59;;;36.75;nan
48089;BME280;33867;50.314;7.802;2022-08-03T15:52:45;99981.50;;;36.94;nan
48089;BME280;33867;50.314;7.802;2022-08-03T15:56:04;99978.19;;;36.92;nan
48089;BME280;33867;50.314;7.802;2022-08-03T15:59:25;99973.72;;;36.91;nan
48089;BME280;33867;50.314;7.802;2022-08-03T16:02:55;99977.88;;;36.84;nan
48089;BME280;33867;50.314;7.802;2022-08-03T16:06:14;99973.78;;;36.42;nan
48089;BME280;33867;50.314;7.802;2022-08-03T16:09:33;99976.28;;;36.21;nan
48089;BME280;33867;50.314;7.802;2022-08-03T16:12:53;99969.25;;;35.93;nan
48089;BME280;33867;50.314;7.802;2022-08-03T16:16:24;99977.81;;;35.65;nan
48089;BME280;33867;50.314;7.802;2022-08-03T16:19:44;99967.44;;;35.88;nan
48089;BME280;33867;50.314;7.802;2022-08-03T16:23:04;99961.81;;;35.88;nan
48089;BME280;33867;50.314;7.802;2022-08-03T16:26:26;99966.53;;;35.57;nan
48089;BME280;33867;50.314;7.802;2022-08-03T16:29:46;99961.00;;;35.65;nan
48089;BME280;33867;50.314;7.802;2022-08-03T16:36:55;99956.25;;;35.43;nan
48089;BME280;33867;50.314;7.802;2022-08-03T16:40:33;99955.25;;;35.26;nan
48089;BME280;33867;50.314;7.802;2022-08-03T16:44:43;99952.78;;;35.47;nan
48089;BME280;33867;50.314;7.802;2022-08-03T16:48:06;99952.53;;;35.34;nan
48089;BME280;33867;50.314;7.802;2022-08-03T16:55:11;99944.88;;;35.26;nan
48089;BME280;33867;50.314;7.802;2022-08-03T16:58:58;99944.38;;;35.24;nan
48089;BME280;33867;50.314;7.802;2022-08-03T17:06:18;99950.09;;;34.83;nan
48089;BME280;33867;50.314;7.802;2022-08-03T17:09:38;99946.69;;;34.72;nan
48089;BME280;33867;50.314;7.802;2022-08-03T17:13:00;99949.41;;;34.36;nan
48089;BME280;33867;50.314;7.802;2022-08-03T17:16:34;99947.44;;;34.37;nan
48089;BME280;33867;50.314;7.802;2022-08-03T17:20:14;99950.47;;;34.40;nan
48089;BME280;33867;50.314;7.802;2022-08-03T17:27:21;99949.19;;;33.91;nan
48089;BME280;33867;50.314;7.802;2022-08-03T17:30:43;99944.44;;;34.06;nan
48089;BME280;33867;50.314;7.802;2022-08-03T17:34:21;99949.84;;;33.83;nan
48089;BME280;33867;50.314;7.802;2022-08-03T17:37:40;99950.53;;;33.94;nan
48089;BME280;33867;50.314;7.802;2022-08-03T17:41:06;99948.16;;;33.87;nan
48089;BME280;33867;50.314;7.802;2022-08-03T17:44:27;99953.06;;;33.77;nan
48089;BME280;33867;50.314;7.802;2022-08-03T17:47:48;99955.06;;;33.57;nan
48089;BME280;33867;50.314;7.802;2022-08-03T17:51:14;99959.44;;;33.63;nan
48089;BME280;33867;50.314;7.802;2022-08-03T17:54:52;99956.41;;;33.60;nan
48089;BME280;33867;50.314;7.802;2022-08-03T17:58:39;99969.34;;;33.56;nan
48089;BME280;33867;50.314;7.802;2022-08-03T18:02:20;99965.00;;;33.31;nan
48089;BME280;33867;50.314;7.802;2022-08-03T18:06:06;99972.00;;;32.91;nan
48089;BME280;33867;50.314;7.802;2022-08-03T18:09:31;99965.28;;;32.73;nan
48089;BME280;33867;50.314;7.802;2022-08-03T18:13:13;99971.50;;;32.65;nan
48089;BME280;33867;50.314;7.802;2022-08-03T18:16:36;99970.88;;;32.49;nan
48089;BME280;33867;50.314;7.802;2022-08-03T18:19:59;99965.00;;;32.26;nan
48089;BME280;33867;50.314;7.802;2022-08-03T18:23:19;99972.66;;;32.16;nan
48089;BME280;33867;50.314;7.802;2022-08-03T18:26:41;99970.66;;;31.92;nan
48089;BME280;33867;50.314;7.802;2022-08-03T18:30:05;99972.78;;;31.77;nan
48089;BME280;33867;50.314;7.802;2022-08-03T18:33:25;99973.03;;;31.46;nan
48089;BME280;33867;50.314;7.802;2022-08-03T18:36:47;99976.56;;;31.18;nan
48089;BME280;33867;50.314;7.802;2022-08-03T18:40:11;99980.28;;;31.03;nan
48089;BME280;33867;50.314;7.802;2022-08-03T18:43:31;99975.03;;;30.96;nan
48089;BME280;33867;50.314;7.802;2022-08-03T18:47:19;99986.56;;;30.74;nan
48089;BME280;33867;50.314;7.802;2022-08-03T18:55:39;99987.53;;;30.29;nan
48089;BME280;33867;50.314;7.802;2022-08-03T18:59:09;99991.78;;;30.11;nan
48089;BME280;33867;50.314;7.802;2022-08-03T19:03:07;99997.91;;;29.88;nan
48089;BME280;33867;50.314;7.802;2022-08-03T19:06:31;99998.75;;;29.68;nan
48089;BME280;33867;50.314;7.802;2022-08-03T19:10:08;100013.19;;;29.50;nan
48089;BME280;33867;50.314;7.802;2022-08-03T19:13:37;100003.44;;;29.37;nan
48089;BME280;33867;50.314;7.802;2022-08-03T19:17:12;100011.19;;;29.25;nan
48089;BME280;33867;50.314;7.802;2022-08-03T19:20:34;100033.59;;;29.08;nan
48089;BME280;33867;50.314;7.802;2022-08-03T19:24:03;100029.41;;;28.90;nan
48089;BME280;33867;50.314;7.802;2022-08-03T19:27:39;100025.69;;;28.74;nan
48089;BME280;33867;50.314;7.802;2022-08-03T19:31:00;100041.38;;;28.48;nan
48089;BME280;33867;50.314;7.802;2022-08-03T19:34:22;100038.28;;;28.40;nan
48089;BME280;33867;50.314;7.802;2022-08-03T19:37:43;100033.19;;;28.21;nan
48089;BME280;33867;50.314;7.802;2022-08-03T19:41:03;100035.31;;;28.09;nan
48089;BME280;33867;50.314;7.802;2022-08-03T19:44:31;100044.03;;;27.91;nan
48089;BME280;33867;50.314;7.802;2022-08-03T19:48:08;100046.41;;;27.77;nan
48089;BME280;33867;50.314;7.802;2022-08-03T19:51:31;100051.84;;;27.67;nan
48089;BME280;33867;50.314;7.802;2022-08-03T19:54:51;100048.09;;;27.51;nan
48089;BME280;33867;50.314;7.802;2022-08-03T19:58:15;100054.06;;;27.38;nan
48089;BME280;33867;50.314;7.802;2022-08-03T20:01:44;100045.03;;;27.21;nan
48089;BME280;33867;50.314;7.802;2022-08-03T20:05:13;100057.59;;;27.06;nan
48089;BME280;33867;50.314;7.802;2022-08-03T20:08:33;100055.66;;;26.85;nan
48089;BME280;33867;50.314;7.802;2022-08-03T20:11:53;100046.75;;;26.78;nan
48089;BME280;33867;50.314;7.802;2022-08-03T20:15:13;100043.31;;;26.71;nan
48089;BME280;33867;50.314;7.802;2022-08-03T20:18:32;100041.53;;;26.60;nan
48089;BME280;33867;50.314;7.802;2022-08-03T20:21:51;100049.41;;;26.51;nan
48089;BME280;33867;50.314;7.802;2022-08-03T20:25:12;100044.44;;;26.31;nan
48089;BME280;33867;50.314;7.802;2022-08-03T20:28:41;100050.06;;;26.19;nan
48089;BME280;33867;50.314;7.802;2022-08-03T20:32:03;100050.69;;;26.05;nan
48089;BME280;33867;50.314;7.802;2022-08-03T20:35:22;100053.69;;;25.86;nan
48089;BME280;33867;50.314;7.802;2022-08-03T20:38:42;100053.50;;;25.76;nan
48089;BME280;33867;50.314;7.802;2022-08-03T20:42:02;100060.88;;;25.71;nan
48089;BME280;33867;50.314;7.802;2022-08-03T20:45:22;100058.25;;;25.64;nan
48089;BME280;33867;50.314;7.802;2022-08-03T20:48:41;100068.75;;;25.50;nan
48089;BME280;33867;50.314;7.802;2022-08-03T20:52:01;100054.53;;;25.42;nan
48089;BME280;33867;50.314;7.802;2022-08-03T20:55:21;100062.03;;;25.29;nan
48089;BME280;33867;50.314;7.802;2022-08-03T20:58:40;100064.47;;;25.26;nan
48089;BME280;33867;50.314;7.802;2022-08-03T21:02:00;100062.59;;;25.15;nan
48089;BME280;33867;50.314;7.802;2022-08-03T21:05:20;100062.47;;;25.10;nan
48089;BME280;33867;50.314;7.802;2022-08-03T21:08:41;100068.47;;;25.06;nan
48089;BME280;33867;50.314;7.802;2022-08-03T21:12:02;100061.81;;;24.91;nan
48089;BME280;33867;50.314;7.802;2022-08-03T21:15:29;100065.94;;;24.76;nan
48089;BME280;33867;50.314;7.802;2022-08-03T21:18:50;100056.75;;;24.59;nan
48089;BME280;33867;50.314;7.802;2022-08-03T21:22:12;100065.50;;;24.56;nan
48089;BME280;33867;50.314;7.802;2022-08-03T21:25:32;100064.31;;;24.52;nan
48089;BME280;33867;50.314;7.802;2022-08-03T21:28:53;100060.75;;;24.40;nan
48089;BME280;33867;50.314;7.802;2022-08-03T21:32:15;100060.03;;;24.33;nan
48089;BME280;33867;50.314;7.802;2022-08-03T21:35:35;100055.56;;;24.20;nan
48089;BME280;33867;50.314;7.802;2022-08-03T21:38:54;100054.59;;;24.03;nan
48089;BME280;33867;50.314;7.802;2022-08-03T21:42:14;100054.84;;;24.01;nan
48089;BME280;33867;50.314;7.802;2022-08-03T21:45:34;100052.34;;;24.00;nan
48089;BME280;33867;50.314;7.802;2022-08-03T21:48:58;100054.97;;;23.83;nan
48089;BME280;33867;50.314;7.802;2022-08-03T21:52:20;100060.34;;;23.78;nan
48089;BME280;33867;50.314;7.802;2022-08-03T21:55:45;100057.00;;;23.76;nan
48089;BME280;33867;50.314;7.802;2022-08-03T21:59:05;100056.72;;;23.66;nan
48089;BME280;33867;50.314;7.802;2022-08-03T22:02:27;100056.03;;;23.58;nan
48089;BME280;33867;50.314;7.802;2022-08-03T22:05:48;100057.16;;;23.51;nan
48089;BME280;33867;50.314;7.802;2022-08-03T22:14:52;100057.44;;;23.31;nan
